Time;durP1;ratioP1;P1;durP2;ratioP2;P2;SDS_P1;SDS_P2;PMS_P1;PMS_P2;Temp;Humidity;BMP_temperature;BMP_pressure;BME280_temperature;BME280_humidity;BME280_pressure;Samples;Min_cycle;Max_cycle;Signal;HPM_P1;HPM_P2
2022/02/13 00:00:15;;;;;;;15.63;5.20;;;1.30;99.90;;;;;;5066639;28;20403;-79
2022/02/13 00:02:42;;;;;;;7.72;3.85;;;1.20;99.90;;;;;;5053520;28;20059;-80
2022/02/13 00:05:08;;;;;;;11.32;4.72;;;1.20;99.90;;;;;;5052530;28;20025;-79
2022/02/13 00:07:35;;;;;;;13.07;4.35;;;1.20;99.90;;;;;;5056669;28;20025;-80
2022/02/13 00:10:02;;;;;;;15.15;4.53;;;1.20;99.90;;;;;;5069028;28;20029;-79
2022/02/13 00:12:27;;;;;;;15.82;4.25;;;1.10;99.90;;;;;;5051339;28;20040;-80
2022/02/13 00:14:53;;;;;;;9.48;3.72;;;1.10;99.90;;;;;;5058482;28;20040;-79
2022/02/13 00:17:19;;;;;;;15.40;4.88;;;1.00;99.90;;;;;;5054689;28;20031;-79
2022/02/13 00:19:46;;;;;;;11.10;3.83;;;1.00;99.90;;;;;;5055701;28;20112;-79
2022/02/13 00:22:11;;;;;;;11.55;4.68;;;1.00;99.90;;;;;;5052000;28;20056;-79
2022/02/13 00:24:37;;;;;;;12.52;5.28;;;1.00;99.90;;;;;;5052208;28;20483;-79
2022/02/13 00:27:03;;;;;;;12.82;4.45;;;1.00;99.90;;;;;;5052521;28;20459;-80
2022/02/13 00:29:28;;;;;;;10.18;4.35;;;1.00;99.90;;;;;;5055503;28;20102;-80
2022/02/13 00:31:54;;;;;;;11.30;4.57;;;1.00;99.90;;;;;;5040696;28;20078;-80
2022/02/13 00:34:19;;;;;;;13.05;4.53;;;1.00;99.90;;;;;;5053138;28;20029;-80
2022/02/13 00:36:45;;;;;;;14.43;5.00;;;0.90;99.90;;;;;;5057522;28;20021;-80
2022/02/13 00:39:10;;;;;;;12.85;4.00;;;0.90;99.90;;;;;;5065491;28;20067;-79
2022/02/13 00:41:36;;;;;;;18.10;5.15;;;0.90;99.90;;;;;;5064553;28;20031;-80
2022/02/13 00:44:01;;;;;;;13.15;4.32;;;0.90;99.90;;;;;;5047906;28;20028;-80
2022/02/13 00:46:28;;;;;;;14.15;4.75;;;0.90;99.90;;;;;;5038710;28;20032;-79
2022/02/13 00:48:54;;;;;;;10.18;4.40;;;0.90;99.90;;;;;;5062951;28;20089;-80
2022/02/13 00:51:20;;;;;;;8.57;3.70;;;0.90;99.90;;;;;;5068447;28;20472;-80
2022/02/13 00:53:46;;;;;;;11.70;4.68;;;0.90;99.90;;;;;;5038453;28;20029;-79
2022/02/13 00:56:12;;;;;;;14.68;4.90;;;0.90;99.90;;;;;;5041334;28;20032;-79
2022/02/13 00:58:38;;;;;;;13.68;4.32;;;0.90;99.90;;;;;;5043847;28;20024;-79
2022/02/13 01:01:04;;;;;;;12.90;4.72;;;0.80;99.90;;;;;;5037505;28;20032;-80
2022/02/13 01:03:30;;;;;;;11.32;4.90;;;0.80;99.90;;;;;;5038352;28;20021;-80
2022/02/13 01:05:56;;;;;;;11.65;4.65;;;0.90;99.90;;;;;;5056644;28;20391;-80
2022/02/13 01:08:21;;;;;;;10.10;4.18;;;0.80;99.90;;;;;;5055640;28;20108;-80
2022/02/13 01:10:47;;;;;;;10.90;4.28;;;0.80;99.90;;;;;;5069440;28;20494;-79
2022/02/13 01:13:13;;;;;;;9.48;4.38;;;0.80;99.90;;;;;;5067086;28;20028;-78
2022/02/13 01:15:38;;;;;;;12.65;4.90;;;0.70;99.90;;;;;;5056288;28;20038;-79
2022/02/13 01:18:04;;;;;;;12.32;4.40;;;0.70;99.90;;;;;;5049104;28;20029;-80
2022/02/13 01:20:29;;;;;;;15.13;4.95;;;0.70;99.90;;;;;;5072177;28;20028;-79
2022/02/13 01:22:55;;;;;;;13.23;4.97;;;0.70;99.90;;;;;;5053044;28;20031;-79
2022/02/13 01:25:20;;;;;;;14.00;5.20;;;0.70;99.90;;;;;;5058758;28;20039;-79
2022/02/13 01:27:46;;;;;;;13.75;4.45;;;0.60;99.90;;;;;;5074598;28;20023;-79
2022/02/13 01:30:12;;;;;;;10.23;4.55;;;0.60;99.90;;;;;;5057376;28;20041;-79
2022/02/13 01:32:38;;;;;;;13.18;5.22;;;0.50;99.90;;;;;;5071254;28;20024;-79
2022/02/13 01:35:04;;;;;;;11.48;4.15;;;0.50;99.90;;;;;;5066562;28;20040;-79
2022/02/13 01:37:30;;;;;;;10.75;4.35;;;0.50;99.90;;;;;;5068784;28;20023;-79
2022/02/13 01:39:55;;;;;;;11.27;4.95;;;0.50;99.90;;;;;;5070285;28;20033;-79
2022/02/13 01:42:21;;;;;;;13.05;5.00;;;0.60;99.90;;;;;;5073504;28;20036;-79
2022/02/13 01:44:47;;;;;;;10.38;4.88;;;0.50;99.90;;;;;;5042572;28;20389;-79
2022/02/13 01:47:13;;;;;;;7.97;4.22;;;0.50;99.90;;;;;;5060476;28;20025;-79
2022/02/13 01:49:38;;;;;;;13.85;5.10;;;0.50;99.90;;;;;;5069132;28;20040;-78
2022/02/13 01:52:05;;;;;;;14.00;5.22;;;0.50;99.90;;;;;;5073838;28;20044;-79
2022/02/13 01:54:31;;;;;;;14.90;5.28;;;0.40;99.90;;;;;;5057888;28;20032;-79
2022/02/13 01:56:56;;;;;;;10.65;4.70;;;0.40;99.90;;;;;;5072936;28;20111;-78
2022/02/13 01:59:23;;;;;;;13.25;5.25;;;0.40;99.90;;;;;;5058696;28;20043;-79
2022/02/13 02:01:49;;;;;;;11.55;4.55;;;0.40;99.90;;;;;;5061208;28;20021;-79
2022/02/13 02:04:14;;;;;;;13.43;4.72;;;0.40;99.90;;;;;;5091303;28;20035;-79
2022/02/13 02:06:40;;;;;;;9.13;4.15;;;0.40;99.90;;;;;;5073724;28;20029;-80
2022/02/13 02:09:06;;;;;;;15.52;5.13;;;0.40;99.90;;;;;;5041328;28;20033;-79
2022/02/13 02:11:32;;;;;;;12.18;4.15;;;0.40;99.90;;;;;;5055702;28;20029;-80
2022/02/13 02:13:58;;;;;;;14.52;4.25;;;0.40;99.90;;;;;;5037662;28;20028;-79
2022/02/13 02:16:23;;;;;;;13.73;4.93;;;0.40;99.90;;;;;;5045807;28;20032;-79
2022/02/13 02:18:49;;;;;;;16.45;5.28;;;0.40;99.90;;;;;;5036376;28;20461;-79
2022/02/13 02:21:15;;;;;;;13.32;4.47;;;0.40;99.90;;;;;;5060014;28;20029;-80
2022/02/13 02:23:41;;;;;;;15.70;5.35;;;0.40;99.90;;;;;;5075176;28;20027;-80
2022/02/13 02:26:08;;;;;;;9.30;5.00;;;0.40;99.90;;;;;;5075298;28;20028;-80
2022/02/13 02:28:33;;;;;;;11.07;4.50;;;0.50;99.90;;;;;;5074658;28;20028;-80
2022/02/13 02:30:59;;;;;;;11.23;5.10;;;0.50;99.90;;;;;;5071272;28;20032;-80
2022/02/13 02:33:25;;;;;;;12.10;5.20;;;0.50;99.90;;;;;;5055022;28;20460;-80
2022/02/13 02:35:51;;;;;;;12.90;4.88;;;0.50;99.90;;;;;;5033557;28;20147;-79
2022/02/13 02:38:17;;;;;;;10.15;5.47;;;0.50;99.90;;;;;;5035091;28;20399;-80
2022/02/13 02:40:43;;;;;;;10.00;4.93;;;0.50;99.90;;;;;;5035406;28;20022;-80
2022/02/13 02:43:08;;;;;;;13.23;4.28;;;0.50;99.90;;;;;;5035326;28;20026;-80
2022/02/13 02:45:34;;;;;;;11.40;4.60;;;0.50;99.90;;;;;;5032811;28;20397;-80
2022/02/13 02:48:00;;;;;;;11.35;4.18;;;0.50;99.90;;;;;;5043610;28;20482;-79
2022/02/13 02:50:26;;;;;;;12.13;4.78;;;0.50;99.90;;;;;;5033403;28;20043;-80
2022/02/13 02:52:51;;;;;;;13.90;4.13;;;0.50;99.90;;;;;;5032279;28;20099;-80
2022/02/13 02:55:17;;;;;;;9.88;4.35;;;0.50;99.90;;;;;;5050904;28;20354;-80
2022/02/13 02:57:43;;;;;;;15.18;5.13;;;0.50;99.90;;;;;;5046139;28;20022;-80
2022/02/13 03:00:10;;;;;;;11.15;3.70;;;0.50;99.90;;;;;;5049784;28;20033;-79
2022/02/13 03:02:36;;;;;;;8.55;4.20;;;0.50;99.90;;;;;;5054474;28;20025;-80
2022/02/13 03:05:03;;;;;;;11.80;4.65;;;0.50;99.90;;;;;;5034638;28;20026;-80
2022/02/13 03:07:28;;;;;;;11.45;4.30;;;0.50;99.90;;;;;;5045916;28;20088;-80
2022/02/13 03:09:54;;;;;;;12.35;4.55;;;0.50;99.90;;;;;;5053112;28;20039;-80
2022/02/13 03:12:20;;;;;;;16.50;5.50;;;0.50;99.90;;;;;;5054803;28;20362;-79
2022/02/13 03:14:45;;;;;;;9.30;4.32;;;0.50;99.90;;;;;;5039530;28;20030;-80
2022/02/13 03:17:11;;;;;;;14.30;4.95;;;0.40;99.90;;;;;;5034252;28;20105;-80
2022/02/13 03:19:37;;;;;;;13.75;4.68;;;0.40;99.90;;;;;;5034554;28;20104;-80
2022/02/13 03:22:04;;;;;;;10.75;4.45;;;0.40;99.90;;;;;;5047367;28;20039;-80
2022/02/13 03:24:29;;;;;;;13.20;4.22;;;0.40;99.90;;;;;;5054498;28;20081;-80
2022/02/13 03:26:55;;;;;;;11.43;4.32;;;0.40;99.90;;;;;;5039125;28;20061;-80
2022/02/13 03:29:20;;;;;;;9.35;4.35;;;0.40;99.90;;;;;;5033074;28;20045;-80
2022/02/13 03:31:46;;;;;;;13.38;4.85;;;0.40;99.90;;;;;;5033803;28;20351;-80
2022/02/13 03:34:12;;;;;;;12.48;4.45;;;0.40;99.90;;;;;;5034544;28;20481;-80
2022/02/13 03:36:38;;;;;;;11.60;4.03;;;0.40;99.90;;;;;;5053167;28;20113;-79
2022/02/13 03:39:04;;;;;;;9.75;4.35;;;0.40;99.90;;;;;;5053781;28;20032;-80
2022/02/13 03:41:30;;;;;;;8.90;3.90;;;0.40;99.90;;;;;;5034860;28;20032;-79
2022/02/13 03:43:56;;;;;;;9.32;4.28;;;0.40;99.90;;;;;;5067552;28;20032;-80
2022/02/13 03:46:21;;;;;;;8.40;4.28;;;0.40;99.90;;;;;;5065822;28;20029;-79
2022/02/13 03:48:47;;;;;;;13.38;5.03;;;0.40;99.90;;;;;;5053547;28;20473;-80
2022/02/13 03:51:13;;;;;;;7.90;4.43;;;0.30;99.90;;;;;;5053192;28;20029;-80
2022/02/13 03:53:38;;;;;;;10.65;4.38;;;0.40;99.90;;;;;;5064557;28;20029;-80
2022/02/13 03:56:04;;;;;;;9.45;3.95;;;0.40;99.90;;;;;;5068694;28;20085;-79
2022/02/13 03:58:30;;;;;;;11.68;4.20;;;0.40;99.90;;;;;;5073464;28;20377;-80
2022/02/13 04:00:55;;;;;;;12.52;4.70;;;0.40;99.90;;;;;;5072887;28;20020;-79
2022/02/13 04:03:22;;;;;;;11.32;4.57;;;0.50;99.90;;;;;;5074035;28;20059;-80
2022/02/13 04:05:48;;;;;;;11.40;4.72;;;0.50;99.90;;;;;;5063444;28;20488;-79
2022/02/13 04:08:13;;;;;;;9.85;3.83;;;0.50;99.90;;;;;;5052367;28;20036;-79
2022/02/13 04:10:39;;;;;;;10.75;4.15;;;0.40;99.90;;;;;;5055367;28;20427;-80
2022/02/13 04:13:05;;;;;;;8.68;4.60;;;0.40;99.90;;;;;;5073785;28;20028;-80
2022/02/13 04:15:30;;;;;;;10.25;4.53;;;0.40;99.90;;;;;;5051098;28;20032;-80
2022/02/13 04:17:56;;;;;;;9.32;4.05;;;0.50;99.90;;;;;;5054293;28;20043;-79
2022/02/13 04:20:22;;;;;;;10.93;3.97;;;0.50;99.90;;;;;;5072680;28;20408;-79
2022/02/13 04:22:47;;;;;;;11.15;4.63;;;0.40;99.90;;;;;;5058832;28;20017;-80
2022/02/13 04:25:13;;;;;;;9.52;4.45;;;0.50;99.90;;;;;;5073572;28;20036;-80
2022/02/13 04:27:38;;;;;;;9.60;4.15;;;0.50;99.90;;;;;;5060314;28;20055;-79
2022/02/13 04:30:05;;;;;;;14.57;4.45;;;0.50;99.90;;;;;;5054060;28;20036;-80
2022/02/13 04:32:31;;;;;;;8.80;4.13;;;0.50;99.90;;;;;;5066878;28;20090;-80
2022/02/13 04:34:57;;;;;;;11.40;4.20;;;0.50;99.90;;;;;;5068856;28;20131;-79
2022/02/13 04:37:22;;;;;;;10.00;3.95;;;0.50;99.90;;;;;;5073869;28;20036;-80
2022/02/13 04:39:49;;;;;;;8.02;4.28;;;0.50;99.90;;;;;;5058729;28;20025;-80
2022/02/13 04:42:14;;;;;;;10.50;4.43;;;0.50;99.90;;;;;;5059001;28;20060;-79
2022/02/13 04:44:41;;;;;;;9.55;4.20;;;0.50;99.90;;;;;;5068268;28;20032;-79
2022/02/13 04:47:07;;;;;;;9.27;3.65;;;0.50;99.90;;;;;;5057259;28;20052;-79
2022/02/13 04:49:32;;;;;;;10.45;4.00;;;0.60;99.90;;;;;;5060210;28;20067;-80
2022/02/13 04:51:58;;;;;;;8.80;4.07;;;0.60;99.90;;;;;;5056652;28;20070;-80
2022/02/13 04:54:23;;;;;;;7.95;4.05;;;0.60;99.90;;;;;;5058132;28;20395;-79
2022/02/13 04:56:50;;;;;;;9.00;4.00;;;0.60;99.90;;;;;;5060068;28;20033;-79
2022/02/13 04:59:16;;;;;;;8.35;3.38;;;0.60;99.90;;;;;;5056460;28;20021;-79
2022/02/13 05:01:41;;;;;;;8.30;3.83;;;0.70;99.90;;;;;;5057705;28;20042;-79
2022/02/13 05:04:07;;;;;;;8.20;3.38;;;0.70;99.90;;;;;;5037471;28;20485;-80
2022/02/13 05:06:33;;;;;;;11.68;3.65;;;0.70;99.90;;;;;;5064190;28;20056;-80
2022/02/13 05:08:58;;;;;;;9.80;4.38;;;0.70;99.90;;;;;;5055151;28;20103;-80
2022/02/13 05:11:26;;;;;;;9.30;3.80;;;0.70;99.90;;;;;;5056999;28;20021;-80
2022/02/13 05:13:51;;;;;;;9.40;3.92;;;0.70;99.90;;;;;;5072625;28;20074;-80
2022/02/13 05:16:17;;;;;;;7.95;3.50;;;0.70;99.90;;;;;;5038001;28;20025;-79
2022/02/13 05:18:42;;;;;;;10.82;3.47;;;0.80;99.90;;;;;;5035912;28;20040;-79
2022/02/13 05:21:08;;;;;;;10.68;3.88;;;0.80;99.90;;;;;;5037926;28;20032;-80
2022/02/13 05:23:34;;;;;;;9.45;4.03;;;0.80;99.90;;;;;;5053323;28;20040;-79
2022/02/13 05:26:01;;;;;;;7.60;3.83;;;0.80;99.90;;;;;;5035871;28;20028;-79
2022/02/13 05:28:27;;;;;;;11.38;3.67;;;0.80;99.90;;;;;;5051491;28;20021;-80
2022/02/13 05:30:53;;;;;;;6.78;3.25;;;0.80;99.90;;;;;;5051656;28;20066;-80
2022/02/13 05:33:18;;;;;;;7.50;3.15;;;0.80;99.90;;;;;;5033723;28;20021;-79
2022/02/13 05:35:44;;;;;;;10.73;3.58;;;0.80;99.90;;;;;;5052069;28;20087;-79
2022/02/13 05:38:11;;;;;;;11.35;3.20;;;0.90;99.90;;;;;;5049584;28;20025;-80
2022/02/13 05:40:37;;;;;;;9.75;3.83;;;0.90;99.90;;;;;;5062693;28;20036;-80
2022/02/13 05:43:03;;;;;;;6.63;2.90;;;0.90;99.90;;;;;;5045684;28;20025;-80
2022/02/13 05:45:29;;;;;;;10.40;3.97;;;0.90;99.90;;;;;;5043088;28;20504;-80
2022/02/13 05:47:54;;;;;;;8.02;2.97;;;0.90;99.90;;;;;;5069392;28;20029;-80
2022/02/13 05:50:20;;;;;;;7.10;3.30;;;0.90;99.90;;;;;;5065601;28;20055;-80
2022/02/13 05:52:45;;;;;;;8.40;3.88;;;0.90;99.90;;;;;;5055629;28;20396;-80
2022/02/13 05:55:11;;;;;;;7.32;3.45;;;0.90;99.90;;;;;;5041878;28;20029;-80
2022/02/13 05:57:43;;;;;;;5.95;2.88;;;0.90;99.90;;;;;;5054294;28;20028;-80
2022/02/13 06:00:10;;;;;;;;;;;0.90;99.90;;;;;;5054879;28;20120;-80
2022/02/13 06:02:35;;;;;;;6.15;2.90;;;0.80;99.90;;;;;;5061412;28;20398;-80
2022/02/13 06:05:01;;;;;;;6.80;3.10;;;0.80;99.90;;;;;;5074830;28;20052;-80
2022/02/13 06:07:26;;;;;;;8.00;3.17;;;0.80;99.90;;;;;;5057467;28;20420;-79
2022/02/13 06:09:52;;;;;;;7.90;3.50;;;0.80;99.90;;;;;;5072145;28;20389;-79
2022/02/13 06:12:17;;;;;;;9.02;3.78;;;0.80;99.90;;;;;;5057920;28;20037;-80
2022/02/13 06:14:43;;;;;;;9.77;4.22;;;0.80;99.90;;;;;;5071395;28;20026;-79
2022/02/13 06:17:08;;;;;;;7.72;3.53;;;0.80;99.90;;;;;;5041653;28;20032;-79
2022/02/13 06:19:34;;;;;;;9.88;3.58;;;0.80;99.90;;;;;;5046330;28;20387;-80
2022/02/13 06:21:59;;;;;;;8.95;3.40;;;0.80;99.90;;;;;;5065415;28;20043;-80
2022/02/13 06:24:25;;;;;;;11.05;3.90;;;0.80;99.90;;;;;;5074280;28;20027;-80
2022/02/13 06:26:50;;;;;;;8.95;3.55;;;0.80;99.90;;;;;;5062963;28;20025;-80
2022/02/13 06:29:17;;;;;;;11.23;3.40;;;0.80;99.90;;;;;;5060382;28;20037;-80
2022/02/13 06:31:43;;;;;;;7.70;3.53;;;0.80;99.90;;;;;;5057632;28;20389;-80
2022/02/13 06:34:08;;;;;;;9.18;4.68;;;0.80;99.90;;;;;;5061893;28;20021;-79
2022/02/13 06:36:34;;;;;;;8.18;3.42;;;0.80;99.90;;;;;;5059562;28;20430;-79
2022/02/13 06:38:59;;;;;;;7.18;3.53;;;0.90;99.90;;;;;;5070549;28;20032;-80
2022/02/13 06:41:25;;;;;;;7.53;3.63;;;0.90;99.90;;;;;;5066966;28;20028;-78
2022/02/13 06:43:50;;;;;;;9.70;3.63;;;0.90;99.90;;;;;;5041586;28;20075;-80
2022/02/13 06:46:16;;;;;;;9.88;3.67;;;0.90;99.90;;;;;;5053236;28;20025;-79
2022/02/13 06:48:42;;;;;;;6.03;3.55;;;0.90;99.90;;;;;;5042145;28;20038;-80
2022/02/13 06:51:07;;;;;;;9.05;3.90;;;0.90;99.90;;;;;;5036605;28;20037;-80
2022/02/13 06:53:33;;;;;;;7.72;3.97;;;1.00;99.90;;;;;;5035987;28;20384;-81
2022/02/13 06:55:58;;;;;;;11.20;3.33;;;1.00;99.90;;;;;;5057991;28;20469;-80
2022/02/13 06:58:24;;;;;;;7.85;3.50;;;1.00;99.90;;;;;;5059918;28;20025;-79
2022/02/13 07:00:49;;;;;;;10.10;3.42;;;1.00;99.90;;;;;;5060283;28;20032;-79
2022/02/13 07:03:15;;;;;;;7.38;3.33;;;1.00;99.90;;;;;;5041505;28;20469;-79
2022/02/13 07:05:41;;;;;;;14.57;4.75;;;1.00;99.90;;;;;;5037484;28;20021;-79
2022/02/13 07:08:06;;;;;;;8.18;4.53;;;1.00;99.90;;;;;;5052849;28;20036;-80
2022/02/13 07:10:32;;;;;;;7.40;3.95;;;1.00;99.90;;;;;;5045168;28;20037;-79
2022/02/13 07:12:58;;;;;;;12.50;3.85;;;1.00;99.90;;;;;;5066689;28;20357;-80
2022/02/13 07:15:24;;;;;;;6.53;3.50;;;1.00;99.90;;;;;;5061468;28;20044;-79
2022/02/13 07:17:49;;;;;;;9.77;4.32;;;1.00;99.90;;;;;;5044024;28;20131;-81
2022/02/13 07:20:15;;;;;;;7.38;3.67;;;1.00;99.90;;;;;;5045452;28;20029;-80
2022/02/13 07:22:41;;;;;;;9.68;3.90;;;1.00;99.90;;;;;;5055089;28;20027;-80
2022/02/13 07:25:07;;;;;;;8.27;3.88;;;1.10;99.90;;;;;;5054729;28;20107;-79
2022/02/13 07:27:34;;;;;;;10.82;4.85;;;1.10;99.90;;;;;;5038410;28;20673;-80
2022/02/13 07:29:59;;;;;;;6.32;3.80;;;1.20;99.90;;;;;;5049037;28;20033;-81
2022/02/13 07:32:25;;;;;;;6.72;3.80;;;1.20;99.90;;;;;;5057941;28;20073;-81
2022/02/13 07:34:50;;;;;;;7.50;3.63;;;1.20;99.90;;;;;;5070265;28;20479;-80
2022/02/13 07:37:16;;;;;;;11.77;4.55;;;1.30;99.90;;;;;;5063369;28;20025;-81
2022/02/13 07:39:41;;;;;;;10.15;4.15;;;1.30;99.90;;;;;;5052246;28;20029;-81
2022/02/13 07:42:07;;;;;;;7.13;4.25;;;1.30;99.90;;;;;;5046384;28;20124;-80
2022/02/13 07:44:33;;;;;;;9.00;4.20;;;1.40;99.90;;;;;;5055773;28;20057;-80
2022/02/13 07:46:58;;;;;;;7.40;4.28;;;1.50;99.90;;;;;;5062858;28;20524;-81
2022/02/13 07:49:24;;;;;;;10.57;4.47;;;1.60;99.90;;;;;;5065778;28;20041;-81
2022/02/13 07:51:50;;;;;;;9.07;4.15;;;1.60;99.90;;;;;;5035076;28;20032;-81
2022/02/13 07:54:15;;;;;;;11.57;4.53;;;1.70;99.90;;;;;;5066296;28;20031;-82
2022/02/13 07:56:41;;;;;;;8.55;3.95;;;1.70;99.90;;;;;;5057395;28;20033;-80
2022/02/13 07:59:07;;;;;;;9.50;4.38;;;1.80;99.90;;;;;;5055878;28;20033;-80
2022/02/13 08:01:32;;;;;;;8.63;4.15;;;1.80;99.90;;;;;;5055550;28;20610;-80
2022/02/13 08:03:58;;;;;;;12.23;4.35;;;1.90;99.90;;;;;;5058911;28;20044;-80
2022/02/13 08:06:24;;;;;;;7.78;3.42;;;1.90;99.90;;;;;;5056809;28;20076;-80
2022/02/13 08:08:50;;;;;;;9.55;4.50;;;2.00;99.90;;;;;;5068083;28;20131;-80
2022/02/13 08:11:17;;;;;;;8.23;4.25;;;2.10;99.90;;;;;;5059356;28;20545;-80
2022/02/13 08:13:43;;;;;;;8.43;4.35;;;2.10;99.90;;;;;;5048636;28;20029;-80
2022/02/13 08:16:08;;;;;;;10.13;4.45;;;2.10;99.90;;;;;;5052367;28;20052;-80
2022/02/13 08:18:34;;;;;;;8.10;3.60;;;2.20;99.90;;;;;;5058632;28;20074;-80
2022/02/13 08:21:03;;;;;;;11.13;5.13;;;2.20;99.90;;;;;;5057074;28;20361;-80
2022/02/13 08:23:28;;;;;;;9.90;4.40;;;2.20;99.90;;;;;;5069709;28;20021;-80
2022/02/13 08:25:54;;;;;;;7.13;3.88;;;2.20;99.90;;;;;;5059723;28;20025;-80
2022/02/13 08:28:20;;;;;;;9.00;4.22;;;2.30;99.90;;;;;;5056918;28;20405;-80
2022/02/13 08:30:46;;;;;;;9.85;4.43;;;2.40;99.90;;;;;;5063021;28;20085;-80
2022/02/13 08:33:12;;;;;;;8.05;3.83;;;2.40;99.90;;;;;;5061729;28;20013;-81
2022/02/13 08:35:38;;;;;;;9.90;3.88;;;2.40;99.90;;;;;;5058428;28;20051;-81
2022/02/13 08:38:04;;;;;;;9.38;4.28;;;2.50;99.90;;;;;;5051990;28;20025;-82
2022/02/13 08:40:31;;;;;;;9.75;3.80;;;2.50;99.90;;;;;;5063884;28;20123;-81
2022/02/13 08:42:58;;;;;;;8.23;4.07;;;2.50;99.90;;;;;;5039133;28;20021;-79
2022/02/13 08:45:24;;;;;;;12.38;4.55;;;2.60;99.90;;;;;;5063587;28;20122;-82
2022/02/13 08:47:50;;;;;;;9.93;4.82;;;2.70;99.90;;;;;;5065713;28;20025;-81
2022/02/13 08:50:16;;;;;;;6.20;3.85;;;2.70;99.90;;;;;;5056652;28;20497;-80
2022/02/13 08:52:41;;;;;;;7.75;3.58;;;2.80;99.90;;;;;;5051841;28;20087;-79
2022/02/13 08:55:07;;;;;;;8.18;4.53;;;2.90;99.90;;;;;;5051973;28;20029;-79
2022/02/13 08:57:33;;;;;;;7.60;3.58;;;2.90;99.90;;;;;;5058621;28;20035;-79
2022/02/13 08:59:59;;;;;;;7.28;3.65;;;3.00;99.90;;;;;;5066150;28;20033;-78
2022/02/13 09:02:24;;;;;;;9.88;4.35;;;3.10;99.90;;;;;;5057698;28;20115;-77
2022/02/13 09:04:50;;;;;;;8.55;4.18;;;3.10;99.90;;;;;;5058417;28;20503;-78
2022/02/13 09:07:15;;;;;;;7.18;4.07;;;3.20;99.90;;;;;;5055211;28;20025;-77
2022/02/13 09:09:43;;;;;;;11.52;4.75;;;3.40;99.90;;;;;;5051594;28;20041;-77
2022/02/13 09:12:09;;;;;;;7.20;3.80;;;3.50;99.90;;;;;;5051390;28;20025;-80
2022/02/13 09:14:34;;;;;;;7.72;4.38;;;3.60;99.90;;;;;;5051848;28;20083;-82
2022/02/13 09:17:00;;;;;;;10.70;4.55;;;3.70;99.90;;;;;;5064400;28;20060;-78
2022/02/13 09:19:25;;;;;;;7.88;4.28;;;3.80;99.90;;;;;;5074280;28;20468;-76
2022/02/13 09:21:54;;;;;;;6.65;4.03;;;3.90;99.90;;;;;;5059745;28;20013;-79
2022/02/13 09:24:20;;;;;;;8.63;4.72;;;3.90;99.90;;;;;;5061613;28;20020;-81
2022/02/13 09:26:46;;;;;;;12.38;5.40;;;3.90;99.90;;;;;;5061801;28;20040;-78
2022/02/13 09:29:11;;;;;;;11.05;4.97;;;4.00;99.90;;;;;;5066630;28;20025;-77
2022/02/13 09:31:37;;;;;;;11.60;5.20;;;4.10;99.90;;;;;;5043360;28;20112;-78
2022/02/13 09:34:02;;;;;;;9.15;4.47;;;4.10;99.90;;;;;;5061532;28;20037;-78
2022/02/13 09:36:28;;;;;;;9.52;4.20;;;4.20;99.90;;;;;;5054126;28;20041;-78
2022/02/13 09:38:54;;;;;;;9.48;4.45;;;4.20;99.90;;;;;;5054785;28;20518;-78
2022/02/13 09:41:21;;;;;;;11.05;3.67;;;4.30;99.90;;;;;;5056243;28;20060;-78
2022/02/13 09:43:47;;;;;;;7.25;3.83;;;4.30;99.90;;;;;;5072309;28;20109;-78
2022/02/13 09:46:15;;;;;;;5.82;3.65;;;4.40;99.90;;;;;;5054290;28;20033;-78
2022/02/13 09:48:40;;;;;;;9.13;3.97;;;4.50;99.90;;;;;;5060884;28;20404;-78
2022/02/13 09:51:06;;;;;;;7.32;3.75;;;4.50;99.90;;;;;;5069818;28;20037;-77
2022/02/13 09:53:34;;;;;;;7.63;4.10;;;4.60;99.90;;;;;;5057161;28;20029;-77
2022/02/13 09:56:05;;;;;;;7.88;3.63;;;4.70;99.90;;;;;;5039808;28;20028;-77
2022/02/13 09:58:31;;;;;;;6.22;3.35;;;4.80;99.90;;;;;;5053872;28;20431;-77
2022/02/13 10:01:04;;;;;;;6.80;4.50;;;4.90;99.90;;;;;;5039549;28;20039;-77
2022/02/13 10:03:32;;;;;;;6.68;3.83;;;5.00;99.90;;;;;;5042468;28;20083;-78
2022/02/13 10:06:21;;;;;;;5.95;3.25;;;5.00;99.90;;;;;;5071874;28;20052;-78
2022/02/13 10:08:49;;;;;;;6.88;3.20;;;5.10;99.90;;;;;;5073715;28;20028;-77
2022/02/13 10:11:25;;;;;;;8.40;3.85;;;5.20;99.90;;;;;;5053059;28;20025;-78
2022/02/13 10:13:50;;;;;;;6.55;3.83;;;5.20;99.90;;;;;;5054625;28;20396;-78
2022/02/13 10:16:30;;;;;;;8.30;3.65;;;5.30;99.90;;;;;;5055139;28;20083;-78
2022/02/13 10:19:11;;;;;;;6.50;3.55;;;5.40;99.90;;;;;;5060274;28;20510;-78
2022/02/13 10:21:49;;;;;;;7.65;3.33;;;5.50;99.90;;;;;;5060052;28;20112;-79
2022/02/13 10:24:19;;;;;;;8.10;3.63;;;5.60;99.90;;;;;;5052992;28;20021;-78
2022/02/13 10:26:47;;;;;;;7.68;3.03;;;5.60;99.90;;;;;;5059461;28;20037;-78
2022/02/13 10:29:13;;;;;;;7.07;3.20;;;5.70;99.90;;;;;;5061537;28;20500;-80
2022/02/13 10:31:40;;;;;;;6.38;3.35;;;5.70;99.90;;;;;;5069375;28;20028;-79
2022/02/13 10:34:05;;;;;;;4.93;2.65;;;5.80;99.90;;;;;;5053134;28;20029;-78
2022/02/13 10:36:39;;;;;;;5.55;3.20;;;5.80;99.90;;;;;;5056885;28;20078;-79
2022/02/13 10:39:24;;;;;;;8.25;3.60;;;5.90;99.90;;;;;;5057598;28;20013;-77
2022/02/13 10:41:52;;;;;;;5.00;3.00;;;6.00;99.90;;;;;;5061254;28;20052;-79
2022/02/13 10:44:25;;;;;;;7.82;3.20;;;6.00;99.90;;;;;;5053765;28;20471;-79
2022/02/13 10:46:51;;;;;;;5.93;3.20;;;6.10;99.90;;;;;;5056294;28;20557;-78
2022/02/13 10:49:18;;;;;;;6.45;3.33;;;6.10;99.90;;;;;;5061807;28;20116;-79
2022/02/13 10:51:44;;;;;;;4.45;2.58;;;6.20;99.90;;;;;;5056875;28;20036;-79
2022/02/13 10:54:10;;;;;;;5.63;2.50;;;6.30;99.90;;;;;;5063358;28;20449;-78
2022/02/13 10:56:37;;;;;;;5.43;2.63;;;6.40;99.90;;;;;;5059142;28;20107;-79
2022/02/13 10:59:04;;;;;;;5.97;2.83;;;6.50;99.90;;;;;;5068816;28;20039;-78
2022/02/13 11:01:30;;;;;;;6.35;3.05;;;6.60;99.90;;;;;;5066905;28;20029;-79
2022/02/13 11:04:02;;;;;;;6.78;2.70;;;6.70;99.90;;;;;;5058410;28;20120;-78
2022/02/13 11:06:30;;;;;;;5.28;2.65;;;6.80;99.90;;;;;;5062910;28;20100;-78
2022/02/13 11:09:31;;;;;;;5.55;2.80;;;6.90;99.90;;;;;;5056125;28;20029;-77
2022/02/13 11:11:57;;;;;;;4.75;2.88;;;7.10;99.90;;;;;;5048131;28;20518;-76
2022/02/13 11:14:36;;;;;;;6.97;3.00;;;7.20;99.90;;;;;;5063915;28;20059;-76
2022/02/13 11:17:04;;;;;;;8.80;3.10;;;7.30;99.90;;;;;;5055929;28;20067;-76
2022/02/13 11:19:32;;;;;;;6.47;3.08;;;7.40;99.90;;;;;;5055796;28;20032;-76
2022/02/13 11:21:58;;;;;;;6.88;3.20;;;7.50;99.90;;;;;;5059878;28;20045;-76
2022/02/13 11:24:32;;;;;;;8.88;3.42;;;7.50;99.90;;;;;;5066245;28;20048;-76
2022/02/13 11:27:00;;;;;;;7.55;3.30;;;7.60;99.90;;;;;;5057976;28;20509;-76
2022/02/13 11:29:55;;;;;;;5.68;2.72;;;7.70;99.90;;;;;;5067185;28;20040;-76
2022/02/13 11:32:37;;;;;;;5.10;2.75;;;7.70;99.90;;;;;;5053221;28;20431;-76
2022/02/13 11:35:05;;;;;;;4.80;3.23;;;7.80;99.90;;;;;;5069736;28;20118;-76
2022/02/13 11:37:48;;;;;;;6.07;3.55;;;7.80;99.90;;;;;;5044718;28;20075;-76
2022/02/13 11:40:39;;;;;;;5.63;3.25;;;7.90;99.90;;;;;;5059809;28;20036;-76
2022/02/13 11:43:07;;;;;;;7.65;3.22;;;7.90;99.90;;;;;;5064590;28;20021;-76
2022/02/13 11:45:43;;;;;;;9.00;3.47;;;7.90;99.90;;;;;;5054772;28;20029;-77
2022/02/13 11:48:33;;;;;;;7.05;3.33;;;8.00;99.90;;;;;;5051974;28;20029;-77
2022/02/13 11:50:59;;;;;;;5.35;3.28;;;8.00;99.90;;;;;;5051563;28;20163;-79
2022/02/13 11:53:25;;;;;;;5.63;3.10;;;8.10;99.90;;;;;;5064354;28;20107;-79
2022/02/13 11:55:51;;;;;;;5.47;3.00;;;8.10;99.90;;;;;;5058303;28;20115;-79
2022/02/13 11:58:18;;;;;;;6.47;3.17;;;8.20;99.90;;;;;;5068886;28;20598;-79
2022/02/13 12:00:48;;;;;;;6.55;3.58;;;8.30;99.90;;;;;;5064776;28;20123;-78
2022/02/13 12:03:18;;;;;;;6.97;3.00;;;8.30;99.90;;;;;;5052684;28;20045;-78
2022/02/13 12:05:50;;;;;;;6.57;3.67;;;8.40;99.90;;;;;;5053223;28;20477;-80
2022/02/13 12:08:24;;;;;;;4.70;2.78;;;8.50;99.90;;;;;;5037887;28;20056;-79
2022/02/13 12:10:59;;;;;;;5.18;3.60;;;8.60;99.90;;;;;;5061246;28;20044;-79
2022/02/13 12:13:26;;;;;;;5.97;2.88;;;8.60;99.90;;;;;;5034100;28;20024;-79
2022/02/13 12:15:57;;;;;;;7.18;3.25;;;8.70;99.90;;;;;;5037123;28;20025;-78
2022/02/13 12:18:22;;;;;;;4.95;2.97;;;8.70;99.90;;;;;;5053850;28;20032;-77
2022/02/13 12:20:49;;;;;;;7.05;3.40;;;8.80;99.90;;;;;;5037468;28;20032;-78
2022/02/13 12:23:17;;;;;;;6.28;3.55;;;8.90;99.90;;;;;;5052927;28;20413;-78
2022/02/13 12:25:46;;;;;;;4.13;2.53;;;8.90;99.90;;;;;;5057876;28;20124;-80
2022/02/13 12:28:13;;;;;;;6.30;2.88;;;9.00;99.70;;;;;;5063442;28;20025;-82
2022/02/13 12:30:51;;;;;;;5.05;2.55;;;9.00;99.70;;;;;;5054225;28;20029;-80
2022/02/13 12:33:18;;;;;;;7.07;3.17;;;9.10;99.60;;;;;;5057227;28;20078;-80
2022/02/13 12:35:45;;;;;;;6.10;2.78;;;9.20;98.90;;;;;;5042282;28;20039;-80
2022/02/13 12:38:12;;;;;;;4.15;2.65;;;9.20;98.90;;;;;;5061270;28;20032;-80
2022/02/13 12:40:43;;;;;;;6.40;2.95;;;9.30;98.30;;;;;;5058140;28;20031;-80
2022/02/13 12:43:18;;;;;;;4.15;2.60;;;9.30;98.60;;;;;;5054569;28;20048;-81
2022/02/13 12:45:46;;;;;;;5.15;2.70;;;9.40;98.10;;;;;;5056923;28;20473;-80
2022/02/13 12:48:19;;;;;;;5.50;2.30;;;9.50;97.50;;;;;;5054137;28;20021;-79
2022/02/13 12:50:47;;;;;;;3.35;1.88;;;9.50;97.50;;;;;;5057246;28;20036;-79